Terminal Aerodrome Forecast
Issued by NWS

Home | Current Version | Previous Version | Text Only | Print | Product List | Glossary On
Versions: 1 2 3 4 5 6 7 8 9 10 11 12 13 14 15 16 17 18 19 20 21 22
000
FTUS42 KJAX 020900 AAA
TAFVQQ
TAF AMD
KVQQ 020914Z 0209/0306 00000KT P6SM FEW050 SCT250
      TEMPO 0210/0211 5SM BR
     FM021600 15004KT P6SM SCT035 SCT250
     FM021830 11008KT P6SM VCTS SCT035CB BKN250
     FM022300 13008KT P6SM FEW040 SCT250=

USA.gov is the U.S. government's official web portal to all federal, state and local government web resources and services.